sensor_id;sensor_type;location;lat;lon;timestamp;P1;durP1;ratioP1;P2;durP2;ratioP2
3343;SDS011;1685;53.104;8.228;2023-02-21T00:00:12;57.97;;;26.23;;
3343;SDS011;1685;53.104;8.228;2023-02-21T00:02:56;42.47;;;23.97;;
3343;SDS011;1685;53.104;8.228;2023-02-21T00:05:40;46.50;;;23.37;;
3343;SDS011;1685;53.104;8.228;2023-02-21T00:08:25;47.67;;;24.20;;
3343;SDS011;1685;53.104;8.228;2023-02-21T00:11:09;44.30;;;22.83;;
3343;SDS011;1685;53.104;8.228;2023-02-21T00:13:55;43.40;;;23.43;;
3343;SDS011;1685;53.104;8.228;2023-02-21T00:16:39;40.97;;;21.90;;
3343;SDS011;1685;53.104;8.228;2023-02-21T00:19:23;40.57;;;22.50;;
3343;SDS011;1685;53.104;8.228;2023-02-21T00:22:08;37.03;;;21.73;;
3343;SDS011;1685;53.104;8.228;2023-02-21T00:24:52;41.33;;;20.33;;
3343;SDS011;1685;53.104;8.228;2023-02-21T00:27:37;35.20;;;20.20;;
3343;SDS011;1685;53.104;8.228;2023-02-21T00:30:22;37.60;;;19.43;;
3343;SDS011;1685;53.104;8.228;2023-02-21T00:33:06;28.30;;;18.30;;
3343;SDS011;1685;53.104;8.228;2023-02-21T00:35:50;35.10;;;19.53;;
3343;SDS011;1685;53.104;8.228;2023-02-21T00:38:35;36.00;;;17.80;;
3343;SDS011;1685;53.104;8.228;2023-02-21T00:41:20;31.10;;;17.93;;
3343;SDS011;1685;53.104;8.228;2023-02-21T00:44:04;31.23;;;18.27;;
3343;SDS011;1685;53.104;8.228;2023-02-21T00:46:50;30.63;;;15.10;;
3343;SDS011;1685;53.104;8.228;2023-02-21T00:49:34;37.63;;;17.27;;
3343;SDS011;1685;53.104;8.228;2023-02-21T00:52:18;25.07;;;14.90;;
3343;SDS011;1685;53.104;8.228;2023-02-21T00:55:03;27.27;;;14.53;;
3343;SDS011;1685;53.104;8.228;2023-02-21T00:57:47;27.40;;;15.13;;
3343;SDS011;1685;53.104;8.228;2023-02-21T01:00:31;26.67;;;14.83;;
3343;SDS011;1685;53.104;8.228;2023-02-21T01:03:16;31.83;;;16.30;;
3343;SDS011;1685;53.104;8.228;2023-02-21T01:06:01;29.33;;;16.33;;
3343;SDS011;1685;53.104;8.228;2023-02-21T01:08:45;39.97;;;15.23;;
3343;SDS011;1685;53.104;8.228;2023-02-21T01:11:30;22.00;;;14.70;;
3343;SDS011;1685;53.104;8.228;2023-02-21T01:14:15;27.57;;;15.87;;
3343;SDS011;1685;53.104;8.228;2023-02-21T01:17:00;25.60;;;16.07;;
3343;SDS011;1685;53.104;8.228;2023-02-21T01:19:46;29.40;;;16.70;;
3343;SDS011;1685;53.104;8.228;2023-02-21T01:22:30;31.20;;;17.40;;
3343;SDS011;1685;53.104;8.228;2023-02-21T01:25:14;27.87;;;16.03;;
3343;SDS011;1685;53.104;8.228;2023-02-21T01:27:59;31.37;;;17.23;;
3343;SDS011;1685;53.104;8.228;2023-02-21T01:30:43;28.60;;;18.23;;
3343;SDS011;1685;53.104;8.228;2023-02-21T01:33:27;29.67;;;18.13;;
3343;SDS011;1685;53.104;8.228;2023-02-21T01:36:12;35.37;;;16.20;;
3343;SDS011;1685;53.104;8.228;2023-02-21T01:38:56;40.00;;;19.23;;
3343;SDS011;1685;53.104;8.228;2023-02-21T01:41:41;31.40;;;17.20;;
3343;SDS011;1685;53.104;8.228;2023-02-21T01:44:28;34.40;;;17.30;;
3343;SDS011;1685;53.104;8.228;2023-02-21T01:47:19;38.20;;;19.30;;
3343;SDS011;1685;53.104;8.228;2023-02-21T01:50:07;27.77;;;15.57;;
3343;SDS011;1685;53.104;8.228;2023-02-21T01:52:56;31.90;;;16.87;;
3343;SDS011;1685;53.104;8.228;2023-02-21T01:55:41;35.83;;;18.20;;
3343;SDS011;1685;53.104;8.228;2023-02-21T01:58:27;49.10;;;19.43;;
3343;SDS011;1685;53.104;8.228;2023-02-21T02:01:16;30.70;;;18.27;;
3343;SDS011;1685;53.104;8.228;2023-02-21T02:04:10;31.80;;;18.77;;
3343;SDS011;1685;53.104;8.228;2023-02-21T02:06:55;27.73;;;17.17;;
3343;SDS011;1685;53.104;8.228;2023-02-21T02:09:41;32.83;;;18.73;;
3343;SDS011;1685;53.104;8.228;2023-02-21T02:12:31;27.87;;;16.23;;
3343;SDS011;1685;53.104;8.228;2023-02-21T02:15:17;39.17;;;18.47;;
3343;SDS011;1685;53.104;8.228;2023-02-21T02:17:56;36.53;;;18.97;;
3343;SDS011;1685;53.104;8.228;2023-02-21T02:21:00;27.40;;;15.83;;
3343;SDS011;1685;53.104;8.228;2023-02-21T02:27:24;33.37;;;17.50;;
3343;SDS011;1685;53.104;8.228;2023-02-21T02:33:21;31.07;;;17.47;;
3343;SDS011;1685;53.104;8.228;2023-02-21T02:36:11;34.07;;;17.73;;
3343;SDS011;1685;53.104;8.228;2023-02-21T02:38:45;32.90;;;17.70;;
3343;SDS011;1685;53.104;8.228;2023-02-21T02:41:20;30.67;;;18.63;;
3343;SDS011;1685;53.104;8.228;2023-02-21T02:43:54;35.70;;;18.60;;
3343;SDS011;1685;53.104;8.228;2023-02-21T02:46:26;36.70;;;18.13;;
3343;SDS011;1685;53.104;8.228;2023-02-21T02:48:56;45.27;;;19.50;;
3343;SDS011;1685;53.104;8.228;2023-02-21T02:51:27;45.23;;;20.90;;
3343;SDS011;1685;53.104;8.228;2023-02-21T02:53:55;41.20;;;20.00;;
3343;SDS011;1685;53.104;8.228;2023-02-21T02:56:22;44.63;;;20.50;;
3343;SDS011;1685;53.104;8.228;2023-02-21T02:58:51;48.33;;;21.00;;
3343;SDS011;1685;53.104;8.228;2023-02-21T03:01:26;34.97;;;19.90;;
3343;SDS011;1685;53.104;8.228;2023-02-21T03:04:23;40.57;;;19.90;;
3343;SDS011;1685;53.104;8.228;2023-02-21T03:07:00;31.90;;;19.50;;
3343;SDS011;1685;53.104;8.228;2023-02-21T03:09:36;42.73;;;22.33;;
3343;SDS011;1685;53.104;8.228;2023-02-21T03:12:12;45.90;;;20.13;;
3343;SDS011;1685;53.104;8.228;2023-02-21T03:14:45;46.10;;;21.50;;
3343;SDS011;1685;53.104;8.228;2023-02-21T03:17:18;51.77;;;22.17;;
3343;SDS011;1685;53.104;8.228;2023-02-21T03:19:48;49.93;;;24.37;;
3343;SDS011;1685;53.104;8.228;2023-02-21T03:22:21;44.93;;;23.50;;
3343;SDS011;1685;53.104;8.228;2023-02-21T03:24:50;45.63;;;22.97;;
3343;SDS011;1685;53.104;8.228;2023-02-21T03:27:19;41.67;;;23.63;;
3343;SDS011;1685;53.104;8.228;2023-02-21T03:29:48;44.10;;;24.10;;
3343;SDS011;1685;53.104;8.228;2023-02-21T03:32:16;48.73;;;23.20;;
3343;SDS011;1685;53.104;8.228;2023-02-21T03:34:45;41.37;;;22.77;;
3343;SDS011;1685;53.104;8.228;2023-02-21T03:37:18;54.93;;;23.73;;
3343;SDS011;1685;53.104;8.228;2023-02-21T03:39:47;39.23;;;22.63;;
3343;SDS011;1685;53.104;8.228;2023-02-21T03:42:14;43.73;;;23.37;;
3343;SDS011;1685;53.104;8.228;2023-02-21T03:44:41;66.70;;;25.20;;
3343;SDS011;1685;53.104;8.228;2023-02-21T03:47:08;44.90;;;23.60;;
3343;SDS011;1685;53.104;8.228;2023-02-21T03:49:35;55.50;;;24.57;;
3343;SDS011;1685;53.104;8.228;2023-02-21T03:52:02;54.80;;;25.10;;
3343;SDS011;1685;53.104;8.228;2023-02-21T03:54:29;44.27;;;24.63;;
3343;SDS011;1685;53.104;8.228;2023-02-21T03:56:58;43.20;;;22.87;;
3343;SDS011;1685;53.104;8.228;2023-02-21T03:59:24;51.93;;;24.10;;
3343;SDS011;1685;53.104;8.228;2023-02-21T04:01:51;46.80;;;24.50;;
3343;SDS011;1685;53.104;8.228;2023-02-21T04:04:18;54.00;;;24.00;;
3343;SDS011;1685;53.104;8.228;2023-02-21T04:06:46;56.80;;;24.67;;
3343;SDS011;1685;53.104;8.228;2023-02-21T04:09:13;60.27;;;25.43;;
3343;SDS011;1685;53.104;8.228;2023-02-21T04:11:41;40.93;;;22.17;;
3343;SDS011;1685;53.104;8.228;2023-02-21T04:14:09;42.37;;;23.23;;
3343;SDS011;1685;53.104;8.228;2023-02-21T04:16:36;48.20;;;23.93;;
3343;SDS011;1685;53.104;8.228;2023-02-21T04:19:03;56.83;;;24.47;;
3343;SDS011;1685;53.104;8.228;2023-02-21T04:21:30;48.63;;;23.57;;
3343;SDS011;1685;53.104;8.228;2023-02-21T04:23:57;46.77;;;25.03;;
3343;SDS011;1685;53.104;8.228;2023-02-21T04:26:24;48.00;;;23.47;;
3343;SDS011;1685;53.104;8.228;2023-02-21T04:28:54;49.37;;;23.27;;
3343;SDS011;1685;53.104;8.228;2023-02-21T04:31:22;46.97;;;24.00;;
3343;SDS011;1685;53.104;8.228;2023-02-21T04:33:49;44.87;;;23.90;;
3343;SDS011;1685;53.104;8.228;2023-02-21T04:36:16;52.53;;;22.97;;
3343;SDS011;1685;53.104;8.228;2023-02-21T04:38:44;49.63;;;22.77;;
3343;SDS011;1685;53.104;8.228;2023-02-21T04:41:11;59.70;;;24.40;;
3343;SDS011;1685;53.104;8.228;2023-02-21T04:43:40;60.03;;;24.13;;
3343;SDS011;1685;53.104;8.228;2023-02-21T04:46:07;51.27;;;25.97;;
3343;SDS011;1685;53.104;8.228;2023-02-21T04:48:36;61.73;;;25.60;;
3343;SDS011;1685;53.104;8.228;2023-02-21T04:51:02;53.70;;;24.93;;
3343;SDS011;1685;53.104;8.228;2023-02-21T04:53:30;61.10;;;25.20;;
3343;SDS011;1685;53.104;8.228;2023-02-21T04:55:57;61.07;;;25.70;;
3343;SDS011;1685;53.104;8.228;2023-02-21T04:58:24;65.83;;;24.47;;
3343;SDS011;1685;53.104;8.228;2023-02-21T05:00:51;54.63;;;25.73;;
3343;SDS011;1685;53.104;8.228;2023-02-21T05:03:18;62.00;;;27.97;;
3343;SDS011;1685;53.104;8.228;2023-02-21T05:05:47;50.17;;;25.00;;
3343;SDS011;1685;53.104;8.228;2023-02-21T05:08:13;53.80;;;25.57;;
3343;SDS011;1685;53.104;8.228;2023-02-21T05:10:40;57.50;;;24.83;;
3343;SDS011;1685;53.104;8.228;2023-02-21T05:13:08;58.87;;;24.40;;
3343;SDS011;1685;53.104;8.228;2023-02-21T05:15:35;61.63;;;26.27;;
3343;SDS011;1685;53.104;8.228;2023-02-21T05:18:02;63.90;;;27.10;;
3343;SDS011;1685;53.104;8.228;2023-02-21T05:20:29;55.37;;;24.27;;
3343;SDS011;1685;53.104;8.228;2023-02-21T05:22:57;51.10;;;24.63;;
3343;SDS011;1685;53.104;8.228;2023-02-21T05:25:24;52.60;;;24.80;;
3343;SDS011;1685;53.104;8.228;2023-02-21T05:27:51;52.43;;;25.50;;
3343;SDS011;1685;53.104;8.228;2023-02-21T05:30:19;57.63;;;24.97;;
3343;SDS011;1685;53.104;8.228;2023-02-21T05:32:47;55.80;;;24.00;;
3343;SDS011;1685;53.104;8.228;2023-02-21T05:35:15;49.07;;;24.87;;
3343;SDS011;1685;53.104;8.228;2023-02-21T05:37:42;55.27;;;25.33;;
3343;SDS011;1685;53.104;8.228;2023-02-21T05:40:11;52.23;;;24.27;;
3343;SDS011;1685;53.104;8.228;2023-02-21T05:42:39;46.67;;;23.80;;
3343;SDS011;1685;53.104;8.228;2023-02-21T05:45:06;65.33;;;24.93;;
3343;SDS011;1685;53.104;8.228;2023-02-21T05:47:34;58.43;;;24.10;;
3343;SDS011;1685;53.104;8.228;2023-02-21T05:50:01;61.20;;;25.03;;
3343;SDS011;1685;53.104;8.228;2023-02-21T05:52:28;59.67;;;25.77;;
3343;SDS011;1685;53.104;8.228;2023-02-21T05:54:56;57.33;;;25.63;;
3343;SDS011;1685;53.104;8.228;2023-02-21T05:57:24;49.63;;;22.77;;
3343;SDS011;1685;53.104;8.228;2023-02-21T05:59:51;51.57;;;23.67;;
3343;SDS011;1685;53.104;8.228;2023-02-21T06:02:21;52.10;;;24.03;;
3343;SDS011;1685;53.104;8.228;2023-02-21T06:04:47;60.00;;;23.90;;
3343;SDS011;1685;53.104;8.228;2023-02-21T06:07:14;54.90;;;22.60;;
3343;SDS011;1685;53.104;8.228;2023-02-21T06:09:42;51.57;;;23.87;;
3343;SDS011;1685;53.104;8.228;2023-02-21T06:12:09;60.13;;;23.93;;
3343;SDS011;1685;53.104;8.228;2023-02-21T06:14:38;52.30;;;23.80;;
3343;SDS011;1685;53.104;8.228;2023-02-21T06:17:04;48.43;;;22.10;;
3343;SDS011;1685;53.104;8.228;2023-02-21T06:19:31;54.93;;;22.93;;
3343;SDS011;1685;53.104;8.228;2023-02-21T06:21:59;49.20;;;22.63;;
3343;SDS011;1685;53.104;8.228;2023-02-21T06:24:25;54.83;;;23.40;;
3343;SDS011;1685;53.104;8.228;2023-02-21T06:26:53;51.67;;;23.00;;
3343;SDS011;1685;53.104;8.228;2023-02-21T06:29:20;47.47;;;23.20;;
3343;SDS011;1685;53.104;8.228;2023-02-21T06:31:48;45.30;;;19.73;;
3343;SDS011;1685;53.104;8.228;2023-02-21T06:34:17;50.17;;;21.90;;
3343;SDS011;1685;53.104;8.228;2023-02-21T06:36:44;38.50;;;19.17;;
3343;SDS011;1685;53.104;8.228;2023-02-21T06:39:11;55.13;;;22.03;;
3343;SDS011;1685;53.104;8.228;2023-02-21T06:41:38;51.50;;;20.60;;
3343;SDS011;1685;53.104;8.228;2023-02-21T06:44:05;37.30;;;18.50;;
3343;SDS011;1685;53.104;8.228;2023-02-21T06:46:32;38.37;;;20.90;;
3343;SDS011;1685;53.104;8.228;2023-02-21T06:49:02;47.03;;;20.50;;
3343;SDS011;1685;53.104;8.228;2023-02-21T06:51:32;57.23;;;20.27;;
3343;SDS011;1685;53.104;8.228;2023-02-21T06:53:59;42.97;;;19.97;;
3343;SDS011;1685;53.104;8.228;2023-02-21T06:56:26;52.13;;;21.87;;
3343;SDS011;1685;53.104;8.228;2023-02-21T06:58:53;36.23;;;18.43;;
3343;SDS011;1685;53.104;8.228;2023-02-21T07:01:21;54.83;;;20.03;;
3343;SDS011;1685;53.104;8.228;2023-02-21T07:03:48;43.97;;;19.93;;
3343;SDS011;1685;53.104;8.228;2023-02-21T07:06:16;40.03;;;20.63;;
3343;SDS011;1685;53.104;8.228;2023-02-21T07:08:43;55.60;;;21.70;;
3343;SDS011;1685;53.104;8.228;2023-02-21T07:11:10;42.53;;;21.17;;
3343;SDS011;1685;53.104;8.228;2023-02-21T07:13:37;51.37;;;20.03;;
3343;SDS011;1685;53.104;8.228;2023-02-21T07:16:04;37.20;;;19.80;;
3343;SDS011;1685;53.104;8.228;2023-02-21T07:18:32;35.83;;;19.20;;
3343;SDS011;1685;53.104;8.228;2023-02-21T07:20:59;39.97;;;18.17;;
3343;SDS011;1685;53.104;8.228;2023-02-21T07:23:27;44.17;;;19.30;;
3343;SDS011;1685;53.104;8.228;2023-02-21T07:25:54;39.10;;;18.70;;
3343;SDS011;1685;53.104;8.228;2023-02-21T07:28:21;40.70;;;20.67;;
3343;SDS011;1685;53.104;8.228;2023-02-21T07:30:48;45.17;;;18.27;;
3343;SDS011;1685;53.104;8.228;2023-02-21T07:33:15;37.07;;;19.37;;
3343;SDS011;1685;53.104;8.228;2023-02-21T07:35:42;37.83;;;20.40;;
3343;SDS011;1685;53.104;8.228;2023-02-21T07:38:10;34.23;;;18.87;;
3343;SDS011;1685;53.104;8.228;2023-02-21T07:40:47;46.23;;;20.70;;
3343;SDS011;1685;53.104;8.228;2023-02-21T07:43:14;52.30;;;20.30;;
3343;SDS011;1685;53.104;8.228;2023-02-21T07:45:41;41.73;;;19.20;;
3343;SDS011;1685;53.104;8.228;2023-02-21T07:48:08;43.70;;;20.00;;
3343;SDS011;1685;53.104;8.228;2023-02-21T07:50:38;40.67;;;19.27;;
3343;SDS011;1685;53.104;8.228;2023-02-21T07:53:05;48.13;;;19.70;;
3343;SDS011;1685;53.104;8.228;2023-02-21T07:55:32;55.17;;;20.33;;
3343;SDS011;1685;53.104;8.228;2023-02-21T07:58:00;50.97;;;18.37;;
3343;SDS011;1685;53.104;8.228;2023-02-21T08:00:28;41.70;;;19.77;;
3343;SDS011;1685;53.104;8.228;2023-02-21T08:02:55;38.07;;;20.40;;
3343;SDS011;1685;53.104;8.228;2023-02-21T08:05:22;41.63;;;20.40;;
3343;SDS011;1685;53.104;8.228;2023-02-21T08:07:49;39.43;;;20.70;;
3343;SDS011;1685;53.104;8.228;2023-02-21T08:10:19;46.67;;;21.23;;
3343;SDS011;1685;53.104;8.228;2023-02-21T08:12:47;39.70;;;19.90;;
3343;SDS011;1685;53.104;8.228;2023-02-21T08:15:16;39.90;;;20.17;;
3343;SDS011;1685;53.104;8.228;2023-02-21T08:17:43;36.63;;;21.03;;
3343;SDS011;1685;53.104;8.228;2023-02-21T08:20:10;39.93;;;20.53;;
3343;SDS011;1685;53.104;8.228;2023-02-21T08:22:37;38.47;;;19.23;;
3343;SDS011;1685;53.104;8.228;2023-02-21T08:25:04;51.00;;;22.07;;
3343;SDS011;1685;53.104;8.228;2023-02-21T08:27:31;44.17;;;21.40;;
3343;SDS011;1685;53.104;8.228;2023-02-21T08:29:58;40.63;;;19.80;;
3343;SDS011;1685;53.104;8.228;2023-02-21T08:32:27;37.20;;;19.30;;
3343;SDS011;1685;53.104;8.228;2023-02-21T08:34:53;48.50;;;21.37;;
3343;SDS011;1685;53.104;8.228;2023-02-21T08:37:20;42.50;;;19.93;;
3343;SDS011;1685;53.104;8.228;2023-02-21T08:39:48;44.07;;;20.63;;
3343;SDS011;1685;53.104;8.228;2023-02-21T08:42:17;39.20;;;19.83;;
3343;SDS011;1685;53.104;8.228;2023-02-21T08:44:45;47.80;;;21.40;;
3343;SDS011;1685;53.104;8.228;2023-02-21T08:47:12;38.90;;;19.33;;
3343;SDS011;1685;53.104;8.228;2023-02-21T08:49:43;36.53;;;19.90;;
3343;SDS011;1685;53.104;8.228;2023-02-21T08:52:11;45.43;;;21.70;;
3343;SDS011;1685;53.104;8.228;2023-02-21T08:54:38;36.17;;;21.13;;
3343;SDS011;1685;53.104;8.228;2023-02-21T08:57:05;41.87;;;20.17;;
3343;SDS011;1685;53.104;8.228;2023-02-21T08:59:32;42.97;;;18.80;;
3343;SDS011;1685;53.104;8.228;2023-02-21T09:02:01;38.17;;;17.73;;
3343;SDS011;1685;53.104;8.228;2023-02-21T09:04:29;46.87;;;21.67;;
3343;SDS011;1685;53.104;8.228;2023-02-21T09:06:57;39.97;;;19.40;;
3343;SDS011;1685;53.104;8.228;2023-02-21T09:09:24;41.03;;;20.40;;
3343;SDS011;1685;53.104;8.228;2023-02-21T09:11:51;41.90;;;19.33;;
3343;SDS011;1685;53.104;8.228;2023-02-21T09:14:18;48.00;;;21.30;;
3343;SDS011;1685;53.104;8.228;2023-02-21T09:16:45;42.33;;;20.93;;
3343;SDS011;1685;53.104;8.228;2023-02-21T09:19:12;36.60;;;21.30;;
3343;SDS011;1685;53.104;8.228;2023-02-21T09:21:43;48.73;;;20.70;;
3343;SDS011;1685;53.104;8.228;2023-02-21T09:24:12;48.37;;;20.83;;
3343;SDS011;1685;53.104;8.228;2023-02-21T09:26:39;40.83;;;21.20;;
3343;SDS011;1685;53.104;8.228;2023-02-21T09:29:06;43.43;;;20.53;;
3343;SDS011;1685;53.104;8.228;2023-02-21T09:31:36;45.00;;;20.13;;
3343;SDS011;1685;53.104;8.228;2023-02-21T09:34:03;44.83;;;20.17;;
3343;SDS011;1685;53.104;8.228;2023-02-21T09:36:30;38.27;;;19.20;;
3343;SDS011;1685;53.104;8.228;2023-02-21T09:38:57;43.70;;;19.40;;
3343;SDS011;1685;53.104;8.228;2023-02-21T09:41:25;36.53;;;20.80;;
3343;SDS011;1685;53.104;8.228;2023-02-21T09:43:52;43.33;;;19.30;;
3343;SDS011;1685;53.104;8.228;2023-02-21T09:46:21;56.17;;;19.73;;
3343;SDS011;1685;53.104;8.228;2023-02-21T09:48:56;35.87;;;17.90;;
3343;SDS011;1685;53.104;8.228;2023-02-21T09:51:23;54.60;;;18.50;;
3343;SDS011;1685;53.104;8.228;2023-02-21T09:53:51;42.63;;;19.17;;
3343;SDS011;1685;53.104;8.228;2023-02-21T09:56:24;34.87;;;18.83;;
3343;SDS011;1685;53.104;8.228;2023-02-21T09:58:54;46.07;;;20.43;;
3343;SDS011;1685;53.104;8.228;2023-02-21T10:01:24;37.53;;;19.07;;
3343;SDS011;1685;53.104;8.228;2023-02-21T10:04:03;41.53;;;18.33;;
3343;SDS011;1685;53.104;8.228;2023-02-21T10:06:42;59.13;;;19.47;;
3343;SDS011;1685;53.104;8.228;2023-02-21T10:09:17;44.60;;;19.30;;
3343;SDS011;1685;53.104;8.228;2023-02-21T10:11:56;35.00;;;18.53;;
3343;SDS011;1685;53.104;8.228;2023-02-21T10:14:29;32.67;;;18.25;;
3343;SDS011;1685;53.104;8.228;2023-02-21T10:17:09;36.87;;;18.27;;
3343;SDS011;1685;53.104;8.228;2023-02-21T10:19:40;38.50;;;17.80;;
3343;SDS011;1685;53.104;8.228;2023-02-21T10:22:11;31.17;;;18.37;;
3343;SDS011;1685;53.104;8.228;2023-02-21T10:24:39;35.57;;;17.70;;
3343;SDS011;1685;53.104;8.228;2023-02-21T10:27:11;40.03;;;17.03;;
3343;SDS011;1685;53.104;8.228;2023-02-21T10:29:42;36.47;;;19.10;;
3343;SDS011;1685;53.104;8.228;2023-02-21T10:32:12;37.60;;;19.10;;
3343;SDS011;1685;53.104;8.228;2023-02-21T10:34:39;34.70;;;18.67;;
3343;SDS011;1685;53.104;8.228;2023-02-21T10:37:14;34.10;;;18.30;;
3343;SDS011;1685;53.104;8.228;2023-02-21T10:39:51;42.23;;;18.00;;
3343;SDS011;1685;53.104;8.228;2023-02-21T10:42:24;35.30;;;19.90;;
3343;SDS011;1685;53.104;8.228;2023-02-21T10:44:55;29.90;;;17.77;;
3343;SDS011;1685;53.104;8.228;2023-02-21T10:47:25;38.33;;;20.10;;
3343;SDS011;1685;53.104;8.228;2023-02-21T10:49:58;55.07;;;19.57;;
3343;SDS011;1685;53.104;8.228;2023-02-21T10:52:29;44.77;;;20.43;;
3343;SDS011;1685;53.104;8.228;2023-02-21T10:55:04;39.30;;;18.83;;
3343;SDS011;1685;53.104;8.228;2023-02-21T10:57:38;31.23;;;17.67;;
3343;SDS011;1685;53.104;8.228;2023-02-21T11:00:07;35.00;;;19.37;;
3343;SDS011;1685;53.104;8.228;2023-02-21T11:02:36;33.03;;;17.57;;
3343;SDS011;1685;53.104;8.228;2023-02-21T11:05:08;35.73;;;18.00;;
3343;SDS011;1685;53.104;8.228;2023-02-21T11:07:38;37.00;;;18.40;;
3343;SDS011;1685;53.104;8.228;2023-02-21T11:13:02;33.93;;;18.47;;
3343;SDS011;1685;53.104;8.228;2023-02-21T11:15:30;34.07;;;19.07;;
3343;SDS011;1685;53.104;8.228;2023-02-21T11:18:02;30.67;;;17.13;;
3343;SDS011;1685;53.104;8.228;2023-02-21T11:20:30;35.00;;;16.50;;
3343;SDS011;1685;53.104;8.228;2023-02-21T11:22:57;28.27;;;17.07;;
3343;SDS011;1685;53.104;8.228;2023-02-21T11:25:25;32.20;;;17.00;;
3343;SDS011;1685;53.104;8.228;2023-02-21T11:27:57;26.37;;;15.63;;
3343;SDS011;1685;53.104;8.228;2023-02-21T11:30:27;32.33;;;16.70;;
3343;SDS011;1685;53.104;8.228;2023-02-21T11:32:57;27.00;;;16.57;;
3343;SDS011;1685;53.104;8.228;2023-02-21T11:35:26;32.50;;;16.33;;
3343;SDS011;1685;53.104;8.228;2023-02-21T11:37:55;30.37;;;16.07;;
3343;SDS011;1685;53.104;8.228;2023-02-21T11:40:25;28.10;;;16.60;;
3343;SDS011;1685;53.104;8.228;2023-02-21T11:48:43;27.93;;;16.30;;
3343;SDS011;1685;53.104;8.228;2023-02-21T11:51:29;35.50;;;17.23;;
3343;SDS011;1685;53.104;8.228;2023-02-21T11:54:00;26.63;;;16.60;;
3343;SDS011;1685;53.104;8.228;2023-02-21T11:56:33;34.93;;;16.83;;
3343;SDS011;1685;53.104;8.228;2023-02-21T11:59:09;24.77;;;15.80;;
3343;SDS011;1685;53.104;8.228;2023-02-21T12:01:48;31.53;;;17.10;;
3343;SDS011;1685;53.104;8.228;2023-02-21T12:04:33;32.63;;;17.00;;
3343;SDS011;1685;53.104;8.228;2023-02-21T12:07:11;30.63;;;15.97;;
3343;SDS011;1685;53.104;8.228;2023-02-21T12:09:43;30.40;;;18.37;;
3343;SDS011;1685;53.104;8.228;2023-02-21T12:12:19;31.00;;;17.33;;
3343;SDS011;1685;53.104;8.228;2023-02-21T12:15:08;29.10;;;15.80;;
3343;SDS011;1685;53.104;8.228;2023-02-21T12:18:00;34.57;;;17.43;;
3343;SDS011;1685;53.104;8.228;2023-02-21T12:20:49;27.70;;;14.90;;
3343;SDS011;1685;53.104;8.228;2023-02-21T12:23:32;33.60;;;17.30;;
3343;SDS011;1685;53.104;8.228;2023-02-21T12:26:11;34.40;;;16.93;;
3343;SDS011;1685;53.104;8.228;2023-02-21T12:28:50;28.33;;;16.80;;
3343;SDS011;1685;53.104;8.228;2023-02-21T12:31:29;30.93;;;16.77;;
3343;SDS011;1685;53.104;8.228;2023-02-21T12:34:10;28.47;;;16.90;;
3343;SDS011;1685;53.104;8.228;2023-02-21T12:36:56;31.20;;;16.53;;
3343;SDS011;1685;53.104;8.228;2023-02-21T12:39:35;28.97;;;17.53;;
3343;SDS011;1685;53.104;8.228;2023-02-21T12:42:20;31.50;;;16.47;;
3343;SDS011;1685;53.104;8.228;2023-02-21T12:45:00;28.52;;;16.05;;
3343;SDS011;1685;53.104;8.228;2023-02-21T12:47:41;27.53;;;16.73;;
3343;SDS011;1685;53.104;8.228;2023-02-21T12:50:18;28.57;;;17.50;;
3343;SDS011;1685;53.104;8.228;2023-02-21T12:52:51;27.80;;;16.90;;
3343;SDS011;1685;53.104;8.228;2023-02-21T12:55:28;32.77;;;18.83;;
3343;SDS011;1685;53.104;8.228;2023-02-21T12:57:59;30.63;;;17.93;;
3343;SDS011;1685;53.104;8.228;2023-02-21T13:00:30;39.87;;;18.27;;
3343;SDS011;1685;53.104;8.228;2023-02-21T13:03:11;36.80;;;18.70;;
3343;SDS011;1685;53.104;8.228;2023-02-21T13:05:49;31.40;;;16.63;;
3343;SDS011;1685;53.104;8.228;2023-02-21T13:08:20;29.10;;;18.37;;
3343;SDS011;1685;53.104;8.228;2023-02-21T13:10:52;29.93;;;19.27;;
3343;SDS011;1685;53.104;8.228;2023-02-21T13:13:27;35.67;;;19.27;;
3343;SDS011;1685;53.104;8.228;2023-02-21T13:15:57;37.73;;;19.77;;
3343;SDS011;1685;53.104;8.228;2023-02-21T13:18:25;34.07;;;19.43;;
3343;SDS011;1685;53.104;8.228;2023-02-21T13:20:59;33.77;;;19.43;;
3343;SDS011;1685;53.104;8.228;2023-02-21T13:26:48;30.67;;;19.17;;
3343;SDS011;1685;53.104;8.228;2023-02-21T13:29:32;34.70;;;19.10;;
3343;SDS011;1685;53.104;8.228;2023-02-21T13:32:00;35.00;;;18.00;;
3343;SDS011;1685;53.104;8.228;2023-02-21T13:34:34;25.57;;;17.93;;
3343;SDS011;1685;53.104;8.228;2023-02-21T13:37:05;31.43;;;19.33;;
3343;SDS011;1685;53.104;8.228;2023-02-21T13:39:38;40.70;;;19.20;;
3343;SDS011;1685;53.104;8.228;2023-02-21T13:42:14;31.77;;;19.00;;
3343;SDS011;1685;53.104;8.228;2023-02-21T13:44:44;41.47;;;20.47;;
3343;SDS011;1685;53.104;8.228;2023-02-21T13:47:14;28.97;;;20.07;;
3343;SDS011;1685;53.104;8.228;2023-02-21T13:49:43;29.67;;;19.23;;
3343;SDS011;1685;53.104;8.228;2023-02-21T13:52:33;31.97;;;20.00;;
3343;SDS011;1685;53.104;8.228;2023-02-21T13:55:22;36.30;;;20.00;;
3343;SDS011;1685;53.104;8.228;2023-02-21T13:57:52;32.80;;;20.50;;
3343;SDS011;1685;53.104;8.228;2023-02-21T14:07:36;34.43;;;19.10;;
3343;SDS011;1685;53.104;8.228;2023-02-21T14:10:13;32.60;;;19.50;;
3343;SDS011;1685;53.104;8.228;2023-02-21T14:12:54;31.00;;;19.03;;
3343;SDS011;1685;53.104;8.228;2023-02-21T14:15:34;29.83;;;19.00;;
3343;SDS011;1685;53.104;8.228;2023-02-21T14:18:13;28.93;;;18.40;;
3343;SDS011;1685;53.104;8.228;2023-02-21T14:20:44;33.58;;;19.13;;
3343;SDS011;1685;53.104;8.228;2023-02-21T14:23:14;36.53;;;23.47;;
3343;SDS011;1685;53.104;8.228;2023-02-21T14:25:41;38.47;;;20.57;;
3343;SDS011;1685;53.104;8.228;2023-02-21T14:34:20;30.33;;;17.17;;
3343;SDS011;1685;53.104;8.228;2023-02-21T14:36:50;26.73;;;18.00;;
3343;SDS011;1685;53.104;8.228;2023-02-21T14:39:19;25.95;;;16.60;;
3343;SDS011;1685;53.104;8.228;2023-02-21T14:41:56;27.40;;;16.92;;
3343;SDS011;1685;53.104;8.228;2023-02-21T14:44:34;27.43;;;16.70;;
3343;SDS011;1685;53.104;8.228;2023-02-21T14:47:17;26.50;;;16.90;;
3343;SDS011;1685;53.104;8.228;2023-02-21T14:50:01;28.60;;;17.27;;
3343;SDS011;1685;53.104;8.228;2023-02-21T14:52:47;27.27;;;17.83;;
3343;SDS011;1685;53.104;8.228;2023-02-21T14:55:43;27.63;;;16.27;;
3343;SDS011;1685;53.104;8.228;2023-02-21T14:58:32;28.60;;;19.03;;
3343;SDS011;1685;53.104;8.228;2023-02-21T15:01:28;33.70;;;19.63;;
3343;SDS011;1685;53.104;8.228;2023-02-21T15:04:08;28.53;;;19.10;;
3343;SDS011;1685;53.104;8.228;2023-02-21T15:06:44;29.23;;;18.20;;
3343;SDS011;1685;53.104;8.228;2023-02-21T15:09:22;30.43;;;18.90;;
3343;SDS011;1685;53.104;8.228;2023-02-21T15:11:49;33.37;;;22.00;;
3343;SDS011;1685;53.104;8.228;2023-02-21T15:14:17;34.60;;;20.97;;
3343;SDS011;1685;53.104;8.228;2023-02-21T15:16:50;37.27;;;22.47;;
3343;SDS011;1685;53.104;8.228;2023-02-21T15:19:20;34.10;;;20.50;;
3343;SDS011;1685;53.104;8.228;2023-02-21T15:24:59;33.23;;;21.17;;
3343;SDS011;1685;53.104;8.228;2023-02-21T15:27:51;34.47;;;22.07;;
3343;SDS011;1685;53.104;8.228;2023-02-21T15:30:26;29.63;;;20.17;;
3343;SDS011;1685;53.104;8.228;2023-02-21T15:32:56;32.37;;;21.80;;
3343;SDS011;1685;53.104;8.228;2023-02-21T15:35:27;33.83;;;21.70;;
3343;SDS011;1685;53.104;8.228;2023-02-21T15:37:58;29.50;;;19.02;;
3343;SDS011;1685;53.104;8.228;2023-02-21T15:40:30;32.63;;;19.53;;
3343;SDS011;1685;53.104;8.228;2023-02-21T15:42:57;32.60;;;21.40;;
3343;SDS011;1685;53.104;8.228;2023-02-21T15:45:25;33.97;;;21.67;;
3343;SDS011;1685;53.104;8.228;2023-02-21T15:47:55;33.30;;;21.90;;
3343;SDS011;1685;53.104;8.228;2023-02-21T15:50:30;31.37;;;21.57;;
3343;SDS011;1685;53.104;8.228;2023-02-21T15:53:13;35.70;;;21.87;;
3343;SDS011;1685;53.104;8.228;2023-02-21T15:55:42;33.70;;;22.23;;
3343;SDS011;1685;53.104;8.228;2023-02-21T15:58:17;41.07;;;23.60;;